createdAt,value
2018-11-20T00:02:28.290Z,2.30
2018-11-20T00:05:15.676Z,2.40
2018-11-20T00:08:03.263Z,2.40
2018-11-20T00:10:50.685Z,2.40
2018-11-20T00:13:39.678Z,2.50
2018-11-20T00:16:34.368Z,2.60
2018-11-20T00:19:26.079Z,2.60
2018-11-20T00:22:21.372Z,2.60
2018-11-20T00:25:09.300Z,2.70
2018-11-20T00:28:02.612Z,2.70
2018-11-20T00:31:10.348Z,2.80
2018-11-20T00:33:59.363Z,2.70
2018-11-20T00:37:00.249Z,2.80
2018-11-20T00:40:07.178Z,2.80
2018-11-20T00:42:54.904Z,2.80
2018-11-20T00:45:35.971Z,2.80
2018-11-20T00:48:29.289Z,2.80
2018-11-20T00:51:17.197Z,2.80
2018-11-20T00:54:04.527Z,2.80
2018-11-20T00:56:57.048Z,2.80
2018-11-20T00:59:42.637Z,2.90
2018-11-20T01:02:26.925Z,2.90
2018-11-20T01:05:19.607Z,2.90
2018-11-20T01:08:01.899Z,2.90
2018-11-20T01:10:49.795Z,2.90
2018-11-20T01:13:42.530Z,2.90
2018-11-20T01:16:37.366Z,2.90
2018-11-20T01:19:30.181Z,2.90
2018-11-20T01:22:18.289Z,3.00
2018-11-20T01:25:10.734Z,2.90
2018-11-20T01:27:59.245Z,3.00
2018-11-20T01:30:55.259Z,3.00
2018-11-20T01:33:42.328Z,3.00
2018-11-20T01:36:29.539Z,3.00
2018-11-20T01:39:24.596Z,3.00
2018-11-20T01:42:16.956Z,3.00
2018-11-20T01:45:04.678Z,3.00
2018-11-20T01:48:02.676Z,3.00
2018-11-20T01:51:03.992Z,3.00
2018-11-20T01:53:54.796Z,3.00
2018-11-20T01:56:44.072Z,3.00
2018-11-20T01:59:26.384Z,3.00
2018-11-20T02:02:26.873Z,3.00
2018-11-20T02:05:15.897Z,3.00
2018-11-20T02:08:04.249Z,3.10
2018-11-20T02:10:50.075Z,3.10
2018-11-20T02:14:32.250Z,3.10
2018-11-20T02:17:31.787Z,3.10
2018-11-20T02:20:24.485Z,3.10
2018-11-20T02:23:25.841Z,3.10
2018-11-20T02:26:20.281Z,3.10
2018-11-20T02:29:07.316Z,3.10
2018-11-20T02:32:05.946Z,3.00
2018-11-20T02:35:02.707Z,3.00
2018-11-20T02:37:51.101Z,3.00
2018-11-20T02:40:39.993Z,3.00
2018-11-20T02:43:27.604Z,3.10
2018-11-20T02:46:15.548Z,3.10
2018-11-20T02:49:03.378Z,3.10
2018-11-20T02:51:52.439Z,3.10
2018-11-20T02:54:41.095Z,3.10
2018-11-20T02:57:36.510Z,3.00
2018-11-20T03:00:21.781Z,3.00
2018-11-20T03:03:20.799Z,3.00
2018-11-20T03:06:15.822Z,3.00
2018-11-20T03:09:04.327Z,3.10
2018-11-20T03:11:56.181Z,3.10
2018-11-20T03:14:51.937Z,3.10
2018-11-20T03:17:40.980Z,3.10
2018-11-20T03:20:39.175Z,3.00
2018-11-20T03:23:36.931Z,3.00
2018-11-20T03:26:27.177Z,3.00
2018-11-20T03:30:09.475Z,3.00
2018-11-20T03:33:07.540Z,3.00
2018-11-20T03:35:48.604Z,3.00
2018-11-20T03:38:55.722Z,3.10
2018-11-20T03:41:43.684Z,3.10
2018-11-20T03:44:41.181Z,3.10
2018-11-20T03:47:23.544Z,3.10
2018-11-20T03:50:16.679Z,3.10
2018-11-20T03:53:08.181Z,3.10
2018-11-20T03:56:00.414Z,3.10
2018-11-20T03:58:51.953Z,3.10
2018-11-20T04:01:45.079Z,3.10
2018-11-20T04:04:49.148Z,3.10
2018-11-20T04:07:36.877Z,3.20
2018-11-20T04:10:24.523Z,3.10
2018-11-20T04:13:13.347Z,3.20
2018-11-20T04:16:00.883Z,3.20
2018-11-20T04:18:49.296Z,3.20
2018-11-20T04:21:37.902Z,3.20
2018-11-20T04:24:29.331Z,3.20
2018-11-20T04:27:16.826Z,3.20
2018-11-20T04:30:05.333Z,3.20
2018-11-20T04:32:43.917Z,3.10
2018-11-20T04:35:36.366Z,3.10
2018-11-20T04:38:19.480Z,3.10
2018-11-20T04:41:11.873Z,3.10
2018-11-20T04:43:51.779Z,3.10
2018-11-20T04:46:38.754Z,3.20
2018-11-20T04:49:18.418Z,3.30
2018-11-20T04:52:11.115Z,3.20
2018-11-20T04:54:54.805Z,3.20
2018-11-20T04:57:45.098Z,3.20
2018-11-20T05:00:39.871Z,3.30
2018-11-20T05:03:44.049Z,3.20
2018-11-20T05:06:33.443Z,3.20
2018-11-20T05:09:20.979Z,3.20
2018-11-20T05:12:22.483Z,3.20
2018-11-20T05:15:11.083Z,3.20
2018-11-20T05:18:11.898Z,3.30
2018-11-20T05:21:12.203Z,3.30
2018-11-20T05:23:57.886Z,3.20
2018-11-20T05:26:50.625Z,3.30
2018-11-20T05:29:48.087Z,3.20
2018-11-20T05:32:42.588Z,3.20
2018-11-20T05:35:22.322Z,3.20
2018-11-20T05:38:09.941Z,3.20
2018-11-20T05:41:07.728Z,3.20
2018-11-20T05:44:02.938Z,3.20
2018-11-20T05:46:52.796Z,3.30
2018-11-20T05:49:40.601Z,3.30
2018-11-20T05:52:38.438Z,3.30
2018-11-20T05:55:36.393Z,3.30
2018-11-20T05:58:24.940Z,3.30
2018-11-20T06:01:19.767Z,3.30
2018-11-20T06:04:18.422Z,3.30
2018-11-20T06:07:20.492Z,3.30
2018-11-20T06:10:08.075Z,3.30
2018-11-20T06:13:11.877Z,3.30
2018-11-20T06:16:07.674Z,3.20
2018-11-20T06:19:05.592Z,3.20
2018-11-20T06:21:54.079Z,3.20
2018-11-20T06:24:41.826Z,3.20
2018-11-20T06:27:29.722Z,3.20
2018-11-20T06:30:10.966Z,3.20
2018-11-20T06:33:08.733Z,3.20
2018-11-20T06:35:56.072Z,3.20
2018-11-20T06:38:53.806Z,3.20
2018-11-20T06:41:50.454Z,3.20
2018-11-20T06:44:38.107Z,3.20
2018-11-20T06:47:25.181Z,3.20
2018-11-20T06:50:12.488Z,3.20
2018-11-20T06:52:59.923Z,3.20
2018-11-20T06:55:41.559Z,3.20
2018-11-20T06:58:33.623Z,3.20
2018-11-20T07:01:26.068Z,3.20
2018-11-20T07:04:14.329Z,3.20
2018-11-20T07:07:16.055Z,3.20
2018-11-20T07:10:03.058Z,3.20
2018-11-20T07:12:57.400Z,3.20
2018-11-20T07:16:01.419Z,3.20
2018-11-20T07:18:48.487Z,3.20
2018-11-20T07:21:29.499Z,3.10
2018-11-20T07:24:21.049Z,3.10
2018-11-20T07:27:24.452Z,3.10
2018-11-20T07:30:22.475Z,3.10
2018-11-20T07:33:09.723Z,3.10
2018-11-20T07:35:51.823Z,3.20
2018-11-20T07:38:39.151Z,3.10
2018-11-20T07:41:27.308Z,3.10
2018-11-20T07:44:19.123Z,3.10
2018-11-20T07:47:10.720Z,3.10
2018-11-20T07:50:02.476Z,3.10
2018-11-20T07:52:54.672Z,3.10
2018-11-20T07:55:44.196Z,3.10
2018-11-20T07:58:49.034Z,3.10
2018-11-20T08:01:38.646Z,3.10
2018-11-20T08:04:30.835Z,3.10
2018-11-20T08:07:25.754Z,3.00
2018-11-20T08:10:29.586Z,3.00
2018-11-20T08:13:34.509Z,3.00
2018-11-20T08:16:22.101Z,3.00
2018-11-20T08:19:06.868Z,3.00
2018-11-20T08:21:55.080Z,3.00
2018-11-20T08:24:43.666Z,2.90
2018-11-20T08:27:31.432Z,2.90
2018-11-20T08:30:19.211Z,2.90
2018-11-20T08:33:11.757Z,2.90
2018-11-20T08:36:16.092Z,2.90
2018-11-20T08:39:03.596Z,2.90
2018-11-20T08:41:53.910Z,2.90
2018-11-20T08:44:51.897Z,2.90
2018-11-20T08:47:55.866Z,2.80
2018-11-20T08:50:42.422Z,2.80
2018-11-20T08:53:31.223Z,2.80
2018-11-20T08:56:19.914Z,2.80
2018-11-20T08:59:17.982Z,2.80
2018-11-20T09:02:16.388Z,2.80
2018-11-20T09:05:10.196Z,2.80
2018-11-20T09:08:08.397Z,2.80
2018-11-20T09:10:59.514Z,2.80
2018-11-20T09:13:59.860Z,2.80
2018-11-20T09:16:44.100Z,2.80
2018-11-20T09:19:42.630Z,2.90
2018-11-20T09:22:34.489Z,2.80
2018-11-20T09:25:22.137Z,2.90
2018-11-20T09:28:10.383Z,2.90
2018-11-20T09:31:12.295Z,2.90
2018-11-20T09:33:54.499Z,2.90
2018-11-20T09:36:43.840Z,2.90
2018-11-20T09:39:41.585Z,2.90
2018-11-20T09:42:48.005Z,2.90
2018-11-20T09:46:23.529Z,2.90
2018-11-20T09:49:24.786Z,2.90
2018-11-20T09:52:10.014Z,2.90
2018-11-20T09:54:59.661Z,2.90
2018-11-20T09:57:41.074Z,2.90
2018-11-20T10:00:33.228Z,2.90
2018-11-20T10:03:24.657Z,2.90
2018-11-20T10:06:28.508Z,2.90
2018-11-20T10:09:16.544Z,2.90
2018-11-20T10:12:04.180Z,2.90
2018-11-20T10:14:48.665Z,2.90
2018-11-20T10:17:46.596Z,2.90
2018-11-20T10:20:34.847Z,2.90
2018-11-20T10:23:22.359Z,2.90
2018-11-20T10:26:09.434Z,2.90
2018-11-20T10:28:56.724Z,2.90
2018-11-20T10:31:44.865Z,2.90
2018-11-20T10:34:33.097Z,2.90
2018-11-20T10:37:21.786Z,2.90
2018-11-20T10:40:13.170Z,2.90
2018-11-20T10:43:20.409Z,2.90
2018-11-20T10:46:18.413Z,2.90
2018-11-20T10:49:06.799Z,2.90
2018-11-20T10:51:56.945Z,3.00
2018-11-20T10:54:48.402Z,3.00
2018-11-20T10:57:55.281Z,3.00
2018-11-20T11:00:43.956Z,3.00
2018-11-20T11:03:45.044Z,3.00
2018-11-20T11:06:33.769Z,3.00
2018-11-20T11:09:21.421Z,3.00
2018-11-20T11:12:09.372Z,3.00
2018-11-20T11:14:56.620Z,3.00
2018-11-20T11:17:59.018Z,3.00
2018-11-20T11:20:46.854Z,3.10
2018-11-20T11:23:38.547Z,3.10
2018-11-20T11:26:26.045Z,3.10
2018-11-20T11:29:18.289Z,3.10
2018-11-20T11:32:05.281Z,3.10
2018-11-20T11:35:05.806Z,3.10
2018-11-20T11:37:43.753Z,3.10
2018-11-20T11:40:45.475Z,3.10
2018-11-20T11:43:47.322Z,3.10
2018-11-20T11:46:44.714Z,3.10
2018-11-20T11:49:32.340Z,3.10
2018-11-20T11:52:20.350Z,3.10
2018-11-20T11:55:09.772Z,3.10
2018-11-20T11:57:58.216Z,3.00
2018-11-20T12:00:51.107Z,3.00
2018-11-20T12:03:39.072Z,3.10
2018-11-20T12:06:40.201Z,3.00
2018-11-20T12:09:24.385Z,3.00
2018-11-20T12:12:03.829Z,3.00
2018-11-20T12:14:52.391Z,3.00
2018-11-20T12:17:39.890Z,3.00
2018-11-20T12:20:34.721Z,3.00
2018-11-20T12:23:25.719Z,3.00
2018-11-20T12:26:12.715Z,3.00
2018-11-20T12:28:59.137Z,3.00
2018-11-20T12:31:50.660Z,3.00
2018-11-20T12:34:37.617Z,3.00
2018-11-20T12:37:26.770Z,3.00
2018-11-20T12:40:16.815Z,3.00
2018-11-20T12:43:13.081Z,3.00
2018-11-20T12:46:17.240Z,3.00
2018-11-20T12:49:06.918Z,3.00
2018-11-20T12:52:08.275Z,3.00
2018-11-20T12:54:56.709Z,3.00
2018-11-20T12:58:04.142Z,3.00
2018-11-20T13:00:46.651Z,3.00
2018-11-20T13:03:54.598Z,3.00
2018-11-20T13:06:42.538Z,3.00
2018-11-20T13:09:37.847Z,3.10
2018-11-20T13:12:25.620Z,3.10
2018-11-20T13:15:30.522Z,3.10
2018-11-20T13:18:14.092Z,3.10
2018-11-20T13:21:03.840Z,3.10
2018-11-20T13:24:02.470Z,3.10
2018-11-20T13:26:49.825Z,3.10
2018-11-20T13:29:49.721Z,3.10
2018-11-20T13:32:41.326Z,3.10
2018-11-20T13:35:34.866Z,3.20
2018-11-20T13:38:35.642Z,3.20
2018-11-20T13:41:55.941Z,3.20
2018-11-20T13:44:58.968Z,3.20
2018-11-20T13:47:47.044Z,3.20
2018-11-20T13:50:41.057Z,3.20
2018-11-20T13:53:48.740Z,3.10
2018-11-20T13:56:40.708Z,3.10
2018-11-20T13:59:27.815Z,3.10
2018-11-20T14:02:28.563Z,3.10
2018-11-20T14:05:16.451Z,3.10
2018-11-20T14:08:01.330Z,3.10
2018-11-20T14:10:51.981Z,3.10
2018-11-20T14:13:34.508Z,3.10
2018-11-20T14:16:42.521Z,3.20
2018-11-20T14:19:31.788Z,3.20
2018-11-20T14:22:32.172Z,3.10
2018-11-20T14:25:19.832Z,3.10
2018-11-20T14:28:14.441Z,3.20
2018-11-20T14:30:53.887Z,3.20
2018-11-20T14:33:57.802Z,3.20
2018-11-20T14:36:53.418Z,3.20
2018-11-20T14:39:43.457Z,3.20
2018-11-20T14:42:35.997Z,3.20
2018-11-20T14:45:29.885Z,3.20
2018-11-20T14:48:18.575Z,3.20
2018-11-20T14:51:25.825Z,3.20
2018-11-20T14:54:09.257Z,3.20
2018-11-20T14:57:03.603Z,3.10
2018-11-20T14:59:50.975Z,3.00
2018-11-20T15:02:35.709Z,3.00
2018-11-20T15:05:35.304Z,2.90
2018-11-20T15:08:43.353Z,2.80
2018-11-20T15:11:30.884Z,2.70
2018-11-20T15:14:22.886Z,2.50
2018-11-20T15:17:26.369Z,2.40
2018-11-20T15:20:25.238Z,2.30
2018-11-20T15:23:15.795Z,2.10
2018-11-20T15:26:04.125Z,2.00
2018-11-20T15:28:51.942Z,1.90
2018-11-20T15:31:46.718Z,1.80
2018-11-20T15:34:33.438Z,1.70
2018-11-20T15:37:21.220Z,1.60
2018-11-20T15:40:16.783Z,1.50
2018-11-20T15:43:04.909Z,1.50
2018-11-20T15:45:54.543Z,1.40
2018-11-20T15:48:43.181Z,1.40
2018-11-20T15:51:32.611Z,1.50
2018-11-20T15:54:23.568Z,1.50
2018-11-20T15:57:18.437Z,1.50
2018-11-20T16:00:07.241Z,1.60
2018-11-20T16:02:46.776Z,1.60
2018-11-20T16:05:45.846Z,1.60
2018-11-20T16:08:32.875Z,1.60
2018-11-20T16:11:21.119Z,1.60
2018-11-20T16:14:15.716Z,1.60
2018-11-20T16:16:54.786Z,1.60
2018-11-20T16:19:42.873Z,1.50
2018-11-20T16:22:33.069Z,1.50
2018-11-20T16:25:28.799Z,1.40
2018-11-20T16:28:24.271Z,1.40
2018-11-20T16:31:15.881Z,1.40
2018-11-20T16:34:02.648Z,1.40
2018-11-20T16:37:02.930Z,1.40
2018-11-20T16:40:00.420Z,1.40
2018-11-20T16:42:52.280Z,1.30
2018-11-20T16:45:40.991Z,1.30
2018-11-20T16:48:28.180Z,1.30
2018-11-20T16:51:31.990Z,1.30
2018-11-20T16:54:19.810Z,1.30
2018-11-20T16:57:24.147Z,1.30
2018-11-20T17:00:12.046Z,1.20
2018-11-20T17:03:01.941Z,1.20
2018-11-20T17:06:02.244Z,1.20
2018-11-20T17:08:54.503Z,1.20
2018-11-20T17:11:33.881Z,1.20
2018-11-20T17:14:21.104Z,1.20
2018-11-20T17:17:12.957Z,1.20
2018-11-20T17:20:10.687Z,1.20
2018-11-20T17:23:12.450Z,1.20
2018-11-20T17:26:13.769Z,1.20
2018-11-20T17:31:25.016Z,1.10
2018-11-20T17:34:12.354Z,1.10
2018-11-20T17:37:06.272Z,1.10
2018-11-20T17:40:06.888Z,1.10
2018-11-20T17:42:54.878Z,1.10
2018-11-20T17:45:43.540Z,1.10
2018-11-20T17:48:39.695Z,1.00
2018-11-20T17:51:31.467Z,1.10
2018-11-20T17:54:33.288Z,1.10
2018-11-20T17:57:20.570Z,1.10
2018-11-20T18:00:15.408Z,1.10
2018-11-20T18:03:10.490Z,1.00
2018-11-20T18:06:04.958Z,1.00
2018-11-20T18:08:53.985Z,0.90
2018-11-20T18:11:45.926Z,0.90
2018-11-20T18:14:44.701Z,0.90
2018-11-20T18:17:39.851Z,0.90
2018-11-20T18:20:27.484Z,1.00
2018-11-20T18:23:16.894Z,1.00
2018-11-20T18:25:59.077Z,1.00
2018-11-20T18:29:06.229Z,1.00
2018-11-20T18:31:53.504Z,1.00
2018-11-20T18:34:54.400Z,1.00
2018-11-20T18:37:43.788Z,1.10
2018-11-20T18:40:39.119Z,1.10
2018-11-20T18:43:27.172Z,1.20
2018-11-20T18:46:17.600Z,1.20
2018-11-20T18:49:06.205Z,1.30
2018-11-20T18:51:47.531Z,1.30
2018-11-20T18:54:40.050Z,1.40
2018-11-20T18:57:38.885Z,1.40
2018-11-20T19:00:32.649Z,1.40
2018-11-20T19:03:20.244Z,1.50
2018-11-20T19:06:07.610Z,1.50
2018-11-20T19:08:57.332Z,1.50
2018-11-20T19:11:48.489Z,1.60
2018-11-20T19:14:37.460Z,1.60
2018-11-20T19:17:25.712Z,1.60
2018-11-20T19:20:04.120Z,1.60
2018-11-20T19:22:52.348Z,1.60
2018-11-20T19:25:50.342Z,1.70
2018-11-20T19:28:45.015Z,1.70
2018-11-20T19:31:32.495Z,1.70
2018-11-20T19:34:27.689Z,1.70
2018-11-20T19:37:15.111Z,1.70
2018-11-20T19:40:02.562Z,1.70
2018-11-20T19:42:57.073Z,1.80
2018-11-20T19:45:44.752Z,1.80
2018-11-20T19:48:40.312Z,1.80
2018-11-20T19:51:27.639Z,1.80
2018-11-20T19:54:25.682Z,1.80
2018-11-20T19:57:17.208Z,1.80
2018-11-20T20:00:18.466Z,1.90
2018-11-20T20:03:06.164Z,1.90
2018-11-20T20:05:54.321Z,1.90
2018-11-20T20:08:55.361Z,1.90
2018-11-20T20:11:48.390Z,1.90
2018-11-20T20:14:40.582Z,1.90
2018-11-20T20:17:29.457Z,1.90
2018-11-20T20:20:16.829Z,1.90
2018-11-20T20:23:04.357Z,1.90
2018-11-20T20:25:53.403Z,1.90
2018-11-20T20:28:42.055Z,2.00
2018-11-20T20:31:43.112Z,2.00
2018-11-20T20:34:36.195Z,2.00
2018-11-20T20:37:24.336Z,2.00
2018-11-20T20:40:12.663Z,2.00
2018-11-20T20:43:10.019Z,2.00
2018-11-20T20:46:02.032Z,2.00
2018-11-20T20:48:56.200Z,2.00
2018-11-20T20:51:44.044Z,2.00
2018-11-20T20:54:31.697Z,2.00
2018-11-20T20:57:20.300Z,2.00
2018-11-20T21:00:03.083Z,2.00
2018-11-20T21:03:03.921Z,2.00
2018-11-20T21:05:51.316Z,2.10
2018-11-20T21:08:45.097Z,2.00
2018-11-20T21:11:27.700Z,2.00
2018-11-20T21:14:15.942Z,2.00
2018-11-20T21:17:03.574Z,2.20
2018-11-20T21:19:51.673Z,2.00
2018-11-20T21:22:38.221Z,2.00
2018-11-20T21:25:25.947Z,2.00
2018-11-20T21:28:13.809Z,2.10
2018-11-20T21:31:14.359Z,2.10
2018-11-20T21:34:11.819Z,2.10
2018-11-20T21:37:01.248Z,2.10
2018-11-20T21:39:50.926Z,2.10
2018-11-20T21:42:45.444Z,2.10
2018-11-20T21:45:34.389Z,2.10
2018-11-20T21:48:30.296Z,2.10
2018-11-20T21:51:17.639Z,2.10
2018-11-20T21:55:38.876Z,2.10
2018-11-20T21:58:24.408Z,2.10
2018-11-20T22:01:17.128Z,2.10
2018-11-20T22:04:19.575Z,2.10
2018-11-20T22:07:06.466Z,2.10
2018-11-20T22:10:13.565Z,2.10
2018-11-20T22:13:00.110Z,2.10
2018-11-20T22:15:57.876Z,2.00
2018-11-20T22:18:51.932Z,1.90
2018-11-20T22:21:45.896Z,1.90
2018-11-20T22:24:37.030Z,1.80
2018-11-20T22:27:23.765Z,1.80
2018-11-20T22:30:18.127Z,1.70
2018-11-20T22:33:05.180Z,1.70
2018-11-20T22:36:02.085Z,1.70
2018-11-20T22:38:42.890Z,1.70
2018-11-20T22:41:37.565Z,1.70
2018-11-20T22:44:40.810Z,1.70
2018-11-20T22:47:38.654Z,1.70
2018-11-20T22:50:30.837Z,1.70
2018-11-20T22:53:30.717Z,1.70
2018-11-20T22:56:13.907Z,1.70
2018-11-20T22:59:08.327Z,1.70
2018-11-20T23:02:15.290Z,1.60
2018-11-20T23:05:14.433Z,1.70
2018-11-20T23:07:45.189Z,1.70
2018-11-20T23:10:18.467Z,1.60
2018-11-20T23:12:47.601Z,1.60
2018-11-20T23:15:17.260Z,1.50
2018-11-20T23:17:45.830Z,1.40
2018-11-20T23:20:15.220Z,1.50
2018-11-20T23:22:44.239Z,1.50
2018-11-20T23:25:14.513Z,1.50
2018-11-20T23:27:43.196Z,1.50
2018-11-20T23:30:13.570Z,1.60
2018-11-20T23:32:42.835Z,1.50
2018-11-20T23:35:12.658Z,1.50
2018-11-20T23:37:42.637Z,1.50
2018-11-20T23:40:12.519Z,1.50
2018-11-20T23:42:42.836Z,1.50
2018-11-20T23:45:13.501Z,1.40
2018-11-20T23:47:42.559Z,1.50
2018-11-20T23:50:13.823Z,1.50
2018-11-20T23:52:42.936Z,1.50
2018-11-20T23:55:13.168Z,1.40
2018-11-20T23:57:43.119Z,1.50
